Talmage, Nebraska
Current Conditions -  °F | °C
As of 3:15 AM on Friday 31 Oct 2014 (Local Time) from KAFK Reporting Station
Overcast Overcast  
Wind Chill: 25°   Ceiling: 2600
Heat Index: 36°   Visibility: 10mi
Dew Point: 24°   Wind: 17mph
Humidity: 62%   Direction: 30°NNE
Pressure: 30.42"   Gusts: 25mph
Location:  40.53°N, 96.02°W
Report Text: KAFK 310815Z AUTO 03015G22KT 10SM OVC026 02/M04 A3042 RMK AO2 T00201045
Loading
Personal Weather Stations






























Interactive Weather Map
Tropical Storm Tracking
New forecast layout! Learn more

10-Day Weather Forecast

Advertisements
Track Severe Weather on mobile